Time;durP1;ratioP1;P1;durP2;ratioP2;P2;SDS_P1;SDS_P2;PMS_P1;PMS_P2;Temp;Humidity;BMP_temperature;BMP_pressure;BME280_temperature;BME280_humidity;BME280_pressure;Samples;Min_cycle;Max_cycle;Signal;HPM_P1;HPM_P2
2023/05/30 00:00:53;;;;;;;9.47;4.90;;;19.20;61.60;;;;;;5065182;28;20480;-62
2023/05/30 00:03:25;;;;;;;10.83;4.87;;;19.20;61.60;;;;;;5065574;28;20496;-62
2023/05/30 00:05:56;;;;;;;11.77;5.40;;;19.20;61.60;;;;;;5064960;28;20510;-62
2023/05/30 00:08:41;;;;;;;10.17;4.30;;;19.20;61.60;;;;;;5067117;28;20525;-63
2023/05/30 00:11:18;;;;;;;9.70;5.10;;;19.20;61.50;;;;;;5064905;28;20463;-63
2023/05/30 00:13:49;;;;;;;8.57;4.50;;;19.10;61.60;;;;;;5065045;28;20467;-63
2023/05/30 00:16:35;;;;;;;11.43;4.33;;;19.10;61.60;;;;;;5066508;28;20518;-63
2023/05/30 00:21:54;;;;;;;10.33;4.93;;;19.10;61.60;;;;;;5066724;28;20929;-63
2023/05/30 00:24:36;;;;;;;8.97;3.90;;;19.10;61.60;;;;;;5065333;28;20470;-64
2023/05/30 00:27:14;;;;;;;12.33;4.47;;;19.10;61.60;;;;;;5068104;28;20467;-62
2023/05/30 00:30:00;;;;;;;12.20;5.10;;;19.20;61.60;;;;;;5064184;28;20464;-63
2023/05/30 00:32:35;;;;;;;8.97;3.97;;;19.10;61.60;;;;;;5027261;28;20866;-62
2023/05/30 00:35:14;;;;;;;9.97;4.70;;;19.20;61.60;;;;;;5088470;28;20461;-63
2023/05/30 00:37:48;;;;;;;8.30;4.00;;;19.20;61.60;;;;;;5064606;28;20456;-62
2023/05/30 00:40:22;;;;;;;10.90;4.20;;;19.20;61.60;;;;;;5068287;28;20464;-62
2023/05/30 00:43:01;;;;;;;10.13;4.47;;;19.20;61.60;;;;;;5083249;28;20501;-63
2023/05/30 00:48:20;;;;;;;12.80;4.30;;;19.10;61.60;;;;;;5064589;28;20464;-62
2023/05/30 00:50:50;;;;;;;8.00;3.97;;;19.10;61.60;;;;;;5064867;28;20503;-63
2023/05/30 00:53:24;;;;;;;12.83;3.80;;;19.10;61.60;;;;;;5064730;28;20461;-62
2023/05/30 00:56:07;;;;;;;9.37;4.73;;;19.00;61.60;;;;;;5056291;28;20925;-63
2023/05/30 00:58:53;;;;;;;11.27;5.00;;;18.90;61.60;;;;;;5061847;28;20495;-63
2023/05/30 01:01:32;;;;;;;11.07;4.73;;;18.90;61.70;;;;;;5066185;28;20559;-63
2023/05/30 01:04:11;;;;;;;10.90;5.00;;;18.90;61.80;;;;;;5063959;28;20927;-63
2023/05/30 01:06:46;;;;;;;11.30;5.63;;;18.80;61.80;;;;;;5064621;28;20521;-62
2023/05/30 01:09:22;;;;;;;8.80;5.20;;;18.80;61.80;;;;;;5067052;28;20531;-65
2023/05/30 01:12:03;;;;;;;8.23;4.73;;;18.80;61.80;;;;;;5057879;28;20476;-62
2023/05/30 01:14:48;;;;;;;14.60;5.30;;;18.80;61.90;;;;;;5066370;28;20475;-62
2023/05/30 01:17:26;;;;;;;9.40;5.00;;;18.70;61.90;;;;;;5063757;28;20507;-63
2023/05/30 01:20:09;;;;;;;12.73;5.53;;;18.60;61.90;;;;;;5079378;28;20484;-62
2023/05/30 01:23:00;;;;;;;11.87;5.70;;;18.60;61.90;;;;;;5065179;28;21023;-62
2023/05/30 01:25:49;;;;;;;7.43;4.77;;;18.60;62.00;;;;;;5062951;28;20452;-62
2023/05/30 01:28:32;;;;;;;11.23;5.87;;;18.50;62.10;;;;;;5062019;28;20464;-62
2023/05/30 01:31:11;;;;;;;9.07;5.10;;;18.50;62.20;;;;;;5063099;28;20479;-62
2023/05/30 01:33:48;;;;;;;10.60;5.37;;;18.40;62.10;;;;;;5063424;28;20521;-62
2023/05/30 01:36:32;;;;;;;10.20;5.10;;;18.30;62.10;;;;;;5084601;28;20559;-62
2023/05/30 01:39:07;;;;;;;9.73;5.23;;;18.20;62.20;;;;;;5061782;28;20877;-62
2023/05/30 01:41:49;;;;;;;11.60;5.33;;;18.10;62.30;;;;;;5063453;28;20468;-62
2023/05/30 01:44:34;;;;;;;9.70;5.30;;;18.00;62.40;;;;;;5062679;28;20485;-62
2023/05/30 01:47:24;;;;;;;11.87;5.60;;;17.90;62.60;;;;;;5063690;28;20474;-62
2023/05/30 01:50:13;;;;;;;11.20;5.30;;;17.70;62.80;;;;;;5061992;28;21251;-62
2023/05/30 01:52:51;;;;;;;10.13;5.37;;;17.70;63.00;;;;;;5060833;28;20504;-62
2023/05/30 01:55:25;;;;;;;9.07;5.70;;;17.60;63.10;;;;;;5064450;28;20458;-62
2023/05/30 01:58:00;;;;;;;13.63;5.53;;;17.60;63.20;;;;;;5061752;28;20465;-62
2023/05/30 02:00:50;;;;;;;14.90;5.70;;;17.50;63.40;;;;;;5065250;28;20470;-62
2023/05/30 02:03:27;;;;;;;13.60;5.73;;;17.50;63.60;;;;;;5062040;28;20464;-62
2023/05/30 02:06:03;;;;;;;10.70;5.60;;;17.50;63.60;;;;;;5059006;28;20455;-62
2023/05/30 02:08:35;;;;;;;11.63;5.60;;;17.50;63.60;;;;;;5064687;28;20477;-62
2023/05/30 02:11:07;;;;;;;8.00;4.93;;;17.50;63.50;;;;;;5060381;28;20557;-62
2023/05/30 02:13:45;;;;;;;11.93;5.50;;;17.50;63.50;;;;;;5061779;28;20830;-62
2023/05/30 02:16:31;;;;;;;9.43;4.67;;;17.60;63.50;;;;;;5063854;28;20461;-62
2023/05/30 02:19:03;;;;;;;7.50;4.33;;;17.60;63.60;;;;;;5063328;28;20462;-62
2023/05/30 02:21:47;;;;;;;9.53;5.00;;;17.50;63.50;;;;;;5062084;28;20553;-62
2023/05/30 02:24:22;;;;;;;8.03;4.27;;;17.50;63.50;;;;;;5064357;28;20450;-62
2023/05/30 02:26:57;;;;;;;11.33;5.20;;;17.50;63.60;;;;;;5078253;28;20475;-62
2023/05/30 02:29:31;;;;;;;9.60;4.70;;;17.40;63.60;;;;;;5060245;28;20462;-62
2023/05/30 02:32:12;;;;;;;9.10;4.80;;;17.40;63.50;;;;;;5055508;28;20522;-62
2023/05/30 02:34:47;;;;;;;11.13;5.10;;;17.40;63.60;;;;;;5061642;28;20457;-62
2023/05/30 02:37:18;;;;;;;10.27;4.80;;;17.30;63.60;;;;;;5062946;28;20459;-66
2023/05/30 02:39:59;;;;;;;9.90;4.50;;;17.30;63.60;;;;;;5066775;28;20470;-62
2023/05/30 02:42:41;;;;;;;8.33;5.27;;;17.30;63.70;;;;;;5063603;28;20850;-62
2023/05/30 02:45:15;;;;;;;11.20;4.70;;;17.30;63.60;;;;;;5064308;28;20453;-62
2023/05/30 02:47:56;;;;;;;9.63;4.43;;;17.20;63.70;;;;;;5060267;28;20471;-62
2023/05/30 02:50:29;;;;;;;11.10;4.80;;;17.20;63.80;;;;;;5063114;28;20472;-62
2023/05/30 02:53:01;;;;;;;11.10;4.80;;;17.20;63.70;;;;;;5064739;28;20975;-62
2023/05/30 02:55:42;;;;;;;9.67;4.63;;;17.20;63.70;;;;;;5064883;28;21352;-62
2023/05/30 02:58:34;;;;;;;9.70;4.43;;;17.20;63.80;;;;;;5062566;28;20452;-63
2023/05/30 03:01:20;;;;;;;9.37;3.97;;;17.20;63.70;;;;;;5061463;28;20470;-63
2023/05/30 03:03:59;;;;;;;11.30;4.73;;;17.20;63.70;;;;;;5057323;28;20486;-62
2023/05/30 03:06:51;;;;;;;9.57;4.37;;;17.10;63.70;;;;;;5063989;28;20949;-62
2023/05/30 03:09:25;;;;;;;8.43;3.83;;;17.10;63.70;;;;;;5066112;28;20457;-62
2023/05/30 03:12:10;;;;;;;8.30;3.73;;;17.10;63.70;;;;;;5061387;28;20999;-62
2023/05/30 03:14:46;;;;;;;8.13;4.00;;;17.10;63.60;;;;;;5060771;28;20563;-62
2023/05/30 03:17:18;;;;;;;7.93;4.00;;;17.10;63.70;;;;;;5061806;28;20465;-62
2023/05/30 03:20:06;;;;;;;9.63;3.53;;;17.20;63.50;;;;;;5064573;28;20565;-62
2023/05/30 03:22:39;;;;;;;9.83;4.23;;;17.20;63.40;;;;;;5059365;28;20552;-62
2023/05/30 03:25:10;;;;;;;9.83;4.00;;;17.30;63.40;;;;;;5084975;28;20496;-62
2023/05/30 03:27:50;;;;;;;7.70;3.53;;;17.20;63.30;;;;;;5061862;28;20473;-62
2023/05/30 03:30:28;;;;;;;9.47;4.07;;;17.20;63.20;;;;;;5064619;28;20551;-62
2023/05/30 03:33:09;;;;;;;10.27;4.20;;;17.20;63.20;;;;;;5063607;28;20510;-62
2023/05/30 03:35:43;;;;;;;11.50;4.00;;;17.20;63.10;;;;;;5067504;28;20498;-64
2023/05/30 03:38:16;;;;;;;10.10;3.97;;;17.20;63.10;;;;;;5082672;28;20457;-62
2023/05/30 03:40:50;;;;;;;7.53;3.07;;;17.20;63.00;;;;;;5066843;28;20498;-63
2023/05/30 03:43:21;;;;;;;12.00;3.90;;;17.10;63.00;;;;;;5064088;28;20857;-63
2023/05/30 03:45:52;;;;;;;9.43;3.47;;;17.10;63.00;;;;;;5066265;28;20466;-63
2023/05/30 03:48:30;;;;;;;9.00;3.77;;;17.10;63.00;;;;;;5082642;28;20543;-63
2023/05/30 03:51:12;;;;;;;9.40;3.57;;;17.20;62.90;;;;;;5063522;28;20473;-63
2023/05/30 03:53:50;;;;;;;11.33;3.93;;;17.20;62.90;;;;;;5065712;28;20471;-63
2023/05/30 03:56:23;;;;;;;8.40;4.07;;;17.10;62.80;;;;;;5069452;28;20461;-63
2023/05/30 03:59:02;;;;;;;8.97;3.73;;;17.10;62.80;;;;;;5066337;28;20485;-63
2023/05/30 04:01:34;;;;;;;9.77;4.17;;;17.10;62.70;;;;;;5062705;28;20581;-63
2023/05/30 04:04:08;;;;;;;10.80;3.60;;;17.10;62.70;;;;;;5088698;28;20530;-63
2023/05/30 04:06:58;;;;;;;7.63;3.80;;;17.10;62.70;;;;;;5064820;28;20473;-63
2023/05/30 04:09:34;;;;;;;10.27;4.00;;;17.10;62.90;;;;;;5065221;28;20476;-63
2023/05/30 04:12:06;;;;;;;11.50;3.90;;;17.00;62.90;;;;;;5061815;28;20841;-63
2023/05/30 04:14:36;;;;;;;11.60;3.90;;;17.00;62.90;;;;;;5063293;28;20545;-63
2023/05/30 04:17:07;;;;;;;9.23;3.40;;;17.00;62.90;;;;;;5086318;28;20457;-63
2023/05/30 04:19:40;;;;;;;8.30;3.70;;;17.00;63.00;;;;;;5066443;28;20454;-63
2023/05/30 04:22:26;;;;;;;10.07;3.70;;;17.00;63.00;;;;;;5064118;28;20523;-63
2023/05/30 04:24:56;;;;;;;14.50;3.77;;;17.10;63.00;;;;;;5065778;28;20469;-63
2023/05/30 04:27:39;;;;;;;11.77;3.77;;;17.10;62.90;;;;;;5065902;28;20457;-63
2023/05/30 04:30:20;;;;;;;12.17;3.90;;;17.10;62.80;;;;;;5064022;28;20571;-63
2023/05/30 04:33:05;;;;;;;9.70;3.73;;;17.10;62.70;;;;;;5064039;28;20592;-63
2023/05/30 04:35:48;;;;;;;7.43;3.60;;;17.20;62.70;;;;;;5065346;28;20992;-63
2023/05/30 04:38:27;;;;;;;8.23;3.23;;;17.30;62.60;;;;;;5066037;28;20457;-64
2023/05/30 04:41:02;;;;;;;10.27;3.67;;;17.30;62.50;;;;;;5063574;28;20581;-63
2023/05/30 04:43:52;;;;;;;8.03;3.10;;;17.50;62.30;;;;;;5062680;28;20454;-63
2023/05/30 04:46:27;;;;;;;14.47;4.00;;;17.60;62.20;;;;;;5065738;28;20554;-63
2023/05/30 04:49:00;;;;;;;11.03;3.60;;;17.70;61.80;;;;;;5067429;28;20473;-63
2023/05/30 04:51:47;;;;;;;9.07;3.33;;;17.70;61.50;;;;;;5063554;28;20500;-63
2023/05/30 04:54:23;;;;;;;10.23;3.80;;;17.70;61.40;;;;;;5084086;28;20469;-64
2023/05/30 04:57:02;;;;;;;8.53;2.83;;;17.70;61.40;;;;;;5046950;28;20947;-64
2023/05/30 04:59:34;;;;;;;9.57;3.30;;;17.80;61.40;;;;;;5059592;28;20921;-64
2023/05/30 05:02:08;;;;;;;9.37;3.00;;;17.90;61.20;;;;;;5081167;28;20501;-64
2023/05/30 05:04:42;;;;;;;9.70;3.13;;;17.90;60.80;;;;;;5063106;28;20544;-63
2023/05/30 05:07:13;;;;;;;8.73;2.73;;;18.00;60.90;;;;;;5062439;28;20453;-64
2023/05/30 05:09:45;;;;;;;8.97;2.97;;;18.00;60.60;;;;;;5064885;28;20816;-63
2023/05/30 05:12:18;;;;;;;9.10;3.20;;;18.00;60.40;;;;;;5064245;28;20449;-64
2023/05/30 05:14:52;;;;;;;5.43;2.60;;;18.00;60.00;;;;;;5060192;28;20463;-64
2023/05/30 05:17:22;;;;;;;10.37;3.20;;;18.00;59.70;;;;;;5066294;28;20549;-64
2023/05/30 05:19:55;;;;;;;8.70;2.93;;;18.00;59.70;;;;;;5067322;28;20538;-61
2023/05/30 05:22:42;;;;;;;10.83;3.10;;;18.00;59.80;;;;;;5064601;28;20479;-62
2023/05/30 05:25:25;;;;;;;8.40;2.47;;;18.00;59.60;;;;;;5061591;28;20876;-62
2023/05/30 05:27:57;;;;;;;45.83;23.63;;;18.10;59.40;;;;;;5063039;28;20682;-62
2023/05/30 05:30:31;;;;;;;8.17;3.10;;;18.20;59.60;;;;;;5064196;28;20487;-62
2023/05/30 05:33:03;;;;;;;6.87;2.80;;;18.50;59.30;;;;;;5064926;28;20459;-62
2023/05/30 05:35:37;;;;;;;8.83;3.20;;;18.90;58.70;;;;;;5065731;28;20465;-64
2023/05/30 05:38:13;;;;;;;7.47;3.03;;;19.50;57.80;;;;;;5062228;28;20469;-62
2023/05/30 05:40:48;;;;;;;7.80;3.03;;;19.70;57.20;;;;;;5063557;28;20480;-62
2023/05/30 05:43:19;;;;;;;11.33;3.30;;;19.80;56.80;;;;;;5065089;28;20466;-64
2023/05/30 05:45:51;;;;;;;8.63;2.93;;;20.00;56.60;;;;;;5062935;28;20975;-61
2023/05/30 05:48:27;;;;;;;11.80;3.40;;;20.10;56.20;;;;;;5065829;28;20465;-69
2023/05/30 05:51:01;;;;;;;7.50;2.53;;;20.20;56.00;;;;;;5064951;28;20462;-62
2023/05/30 05:53:34;;;;;;;9.40;3.70;;;20.20;55.30;;;;;;5083785;28;20511;-62
2023/05/30 05:56:07;;;;;;;11.63;3.17;;;20.30;55.60;;;;;;5067418;28;20466;-62
2023/05/30 05:58:49;;;;;;;8.33;2.73;;;20.70;55.10;;;;;;5061746;28;20450;-62
2023/05/30 06:01:23;;;;;;;8.43;2.50;;;20.90;54.80;;;;;;5062529;28;20493;-63
2023/05/30 06:03:55;;;;;;;11.83;3.03;;;21.40;54.80;;;;;;5065691;28;21107;-62
2023/05/30 06:06:29;;;;;;;11.23;3.03;;;21.70;52.70;;;;;;5064929;28;20465;-63
2023/05/30 06:11:50;;;;;;;9.37;3.00;;;21.10;52.60;;;;;;5061531;28;20915;-62
2023/05/30 06:14:24;;;;;;;9.77;3.50;;;20.80;52.10;;;;;;5063982;28;20871;-63
2023/05/30 06:17:04;;;;;;;8.70;2.70;;;20.30;52.40;;;;;;5066700;28;20460;-62
2023/05/30 06:19:40;;;;;;;9.77;2.83;;;20.00;52.60;;;;;;5065017;28;20457;-62
2023/05/30 06:22:12;;;;;;;8.10;2.73;;;19.70;52.60;;;;;;5064387;28;20480;-62
2023/05/30 06:24:44;;;;;;;8.67;2.83;;;19.40;52.90;;;;;;5064060;28;21136;-62
2023/05/30 06:27:17;;;;;;;6.83;2.53;;;19.30;53.40;;;;;;5066706;28;21106;-62
2023/05/30 06:29:51;;;;;;;10.80;3.33;;;19.30;53.60;;;;;;5060431;28;20469;-63
2023/05/30 06:32:25;;;;;;;8.43;2.60;;;19.20;53.60;;;;;;5061404;28;20557;-62
2023/05/30 06:35:07;;;;;;;8.43;2.80;;;19.10;53.60;;;;;;5064865;28;20554;-61
2023/05/30 06:37:49;;;;;;;9.57;2.43;;;18.90;53.70;;;;;;5064365;28;20471;-62
2023/05/30 06:40:23;;;;;;;7.97;2.50;;;18.80;54.10;;;;;;5066810;28;21175;-62
2023/05/30 06:43:14;;;;;;;5.93;2.07;;;18.70;54.10;;;;;;5065608;28;20903;-61
2023/05/30 06:45:45;;;;;;;7.43;2.57;;;18.70;54.10;;;;;;5063632;28;20994;-62
2023/05/30 06:48:18;;;;;;;13.30;3.33;;;18.60;54.20;;;;;;5066626;28;20460;-62
2023/05/30 06:50:56;;;;;;;7.77;3.30;;;18.70;54.50;;;;;;5061373;28;20476;-62
2023/05/30 06:53:31;;;;;;;8.63;3.03;;;18.70;54.50;;;;;;5056594;28;20468;-61
2023/05/30 06:56:02;;;;;;;8.60;2.90;;;18.70;54.40;;;;;;5059422;28;20460;-62
2023/05/30 06:58:41;;;;;;;15.53;3.03;;;18.70;54.30;;;;;;5060186;28;20537;-61
2023/05/30 07:01:13;;;;;;;9.37;2.87;;;18.60;54.20;;;;;;5061662;28;20578;-61
2023/05/30 07:03:46;;;;;;;9.60;3.20;;;18.60;54.10;;;;;;5059103;28;20473;-61
2023/05/30 07:06:18;;;;;;;10.53;2.50;;;18.60;54.20;;;;;;5059934;28;20560;-61
2023/05/30 07:08:52;;;;;;;14.00;3.40;;;18.60;54.30;;;;;;5066936;28;20468;-61
2023/05/30 07:11:25;;;;;;;8.77;3.53;;;18.70;54.30;;;;;;5061680;28;20486;-61
2023/05/30 07:14:11;;;;;;;11.97;3.00;;;18.70;54.30;;;;;;5062139;28;20547;-61
2023/05/30 07:16:43;;;;;;;10.10;3.30;;;18.70;54.20;;;;;;5064027;28;20461;-63
2023/05/30 07:19:15;;;;;;;8.63;3.10;;;18.70;54.10;;;;;;5061243;28;20456;-63
2023/05/30 07:22:00;;;;;;;10.27;4.27;;;18.70;53.90;;;;;;5063110;28;20980;-61
2023/05/30 07:24:36;;;;;;;10.37;3.03;;;18.70;53.90;;;;;;5065103;28;20567;-63
2023/05/30 07:27:10;;;;;;;9.97;2.93;;;18.70;53.90;;;;;;5063028;28;21057;-61
2023/05/30 07:29:47;;;;;;;8.40;2.73;;;18.80;53.90;;;;;;5066493;28;20471;-61
2023/05/30 07:32:21;;;;;;;11.50;3.10;;;18.80;54.00;;;;;;5062814;28;21231;-61
2023/05/30 07:34:56;;;;;;;7.70;3.00;;;18.90;54.00;;;;;;5066822;28;20453;-61
2023/05/30 07:37:28;;;;;;;10.90;2.67;;;18.90;53.90;;;;;;5064989;28;20449;-61
2023/05/30 07:40:08;;;;;;;10.77;3.10;;;18.90;53.60;;;;;;5063459;28;21035;-61
2023/05/30 07:42:50;;;;;;;8.40;2.90;;;18.90;53.70;;;;;;5065417;28;20468;-61
2023/05/30 07:45:28;;;;;;;7.37;2.80;;;19.00;54.00;;;;;;5064739;28;20522;-61
2023/05/30 07:48:06;;;;;;;12.90;3.00;;;19.10;53.90;;;;;;5061680;28;20955;-61
2023/05/30 07:50:36;;;;;;;12.10;2.70;;;19.00;53.60;;;;;;5065365;28;20460;-61
2023/05/30 07:53:19;;;;;;;8.50;3.17;;;19.10;53.10;;;;;;5062267;28;20488;-61
2023/05/30 07:55:51;;;;;;;8.80;2.50;;;19.10;53.10;;;;;;5064713;28;20551;-61
2023/05/30 07:58:23;;;;;;;11.97;2.70;;;19.10;53.20;;;;;;5065446;28;20462;-60
2023/05/30 08:01:05;;;;;;;9.70;3.27;;;19.10;53.40;;;;;;5064948;28;21281;-61
2023/05/30 08:03:36;;;;;;;9.00;2.43;;;19.10;53.20;;;;;;5064352;28;20507;-61
2023/05/30 08:06:10;;;;;;;9.13;2.93;;;19.10;53.10;;;;;;5063913;28;20544;-61
2023/05/30 08:08:44;;;;;;;8.43;2.70;;;19.20;53.30;;;;;;5066692;28;20919;-62
2023/05/30 08:11:19;;;;;;;9.73;2.77;;;19.20;53.40;;;;;;5064392;28;20484;-61
2023/05/30 08:13:59;;;;;;;7.97;2.30;;;19.30;53.20;;;;;;5065863;28;20526;-61
2023/05/30 08:16:39;;;;;;;6.30;2.10;;;19.40;52.90;;;;;;5064573;28;20450;-61
2023/05/30 08:19:21;;;;;;;6.67;2.67;;;19.50;52.70;;;;;;5063361;28;20464;-61
2023/05/30 08:22:03;;;;;;;9.97;3.10;;;19.50;52.70;;;;;;5064167;28;20464;-61
2023/05/30 08:24:38;;;;;;;10.33;2.73;;;19.60;52.90;;;;;;5060797;28;20466;-62
2023/05/30 08:27:13;;;;;;;16.00;3.40;;;19.70;52.60;;;;;;5067855;28;20525;-61
2023/05/30 08:29:49;;;;;;;10.47;3.10;;;19.70;52.30;;;;;;5064592;28;20803;-61
2023/05/30 08:32:27;;;;;;;11.10;2.77;;;19.70;52.40;;;;;;5062114;28;20484;-61
2023/05/30 08:34:57;;;;;;;8.60;2.80;;;19.80;52.30;;;;;;5062965;28;20544;-61
2023/05/30 08:37:38;;;;;;;8.70;2.93;;;19.80;51.90;;;;;;5062833;28;20457;-61
2023/05/30 08:40:19;;;;;;;8.93;2.57;;;19.80;51.90;;;;;;5066494;28;20441;-61
2023/05/30 08:42:54;;;;;;;9.00;2.97;;;19.80;52.00;;;;;;5063181;28;20493;-61
2023/05/30 08:45:35;;;;;;;11.73;3.07;;;19.80;52.10;;;;;;5064323;28;20961;-61
2023/05/30 08:48:18;;;;;;;8.43;2.70;;;19.80;52.10;;;;;;5064270;28;20458;-62
2023/05/30 08:50:52;;;;;;;10.93;3.07;;;19.80;52.40;;;;;;5063151;28;20451;-61
2023/05/30 08:53:40;;;;;;;10.40;2.60;;;19.80;52.50;;;;;;5065595;28;20456;-61
2023/05/30 08:56:21;;;;;;;10.27;2.80;;;19.90;52.60;;;;;;5064695;28;20466;-61
2023/05/30 08:59:00;;;;;;;10.00;2.87;;;20.00;52.40;;;;;;5062584;28;20946;-62
2023/05/30 09:01:37;;;;;;;12.67;2.80;;;20.00;52.40;;;;;;5066113;28;20992;-61
2023/05/30 09:04:19;;;;;;;9.90;2.63;;;20.00;52.40;;;;;;5063234;28;20477;-62
2023/05/30 09:06:51;;;;;;;11.07;3.50;;;20.10;52.50;;;;;;5063249;28;20875;-61
2023/05/30 09:09:26;;;;;;;11.57;3.40;;;20.10;52.60;;;;;;5067408;28;20459;-62
2023/05/30 09:11:59;;;;;;;10.87;3.03;;;20.20;52.40;;;;;;5060548;28;20929;-62
2023/05/30 09:14:34;;;;;;;9.70;3.33;;;20.20;52.20;;;;;;5064217;28;20532;-61
2023/05/30 09:17:14;;;;;;;8.27;2.60;;;20.20;52.10;;;;;;5064396;28;20449;-62
2023/05/30 09:19:51;;;;;;;14.93;2.87;;;20.20;52.00;;;;;;5060317;28;20481;-62
2023/05/30 09:22:22;;;;;;;8.20;2.43;;;20.20;52.10;;;;;;5065285;28;20538;-61
2023/05/30 09:25:05;;;;;;;7.57;2.47;;;20.30;52.10;;;;;;5061677;28;21076;-62
2023/05/30 09:27:40;;;;;;;8.50;3.00;;;20.20;52.00;;;;;;5064525;28;20474;-61
2023/05/30 09:30:15;;;;;;;7.80;2.50;;;20.20;52.00;;;;;;5060515;28;20459;-62
2023/05/30 09:33:04;;;;;;;8.00;2.50;;;20.20;52.00;;;;;;5064706;28;20485;-62
2023/05/30 09:35:55;;;;;;;12.07;3.07;;;20.30;52.10;;;;;;5064285;28;20479;-62
2023/05/30 09:38:36;;;;;;;9.13;3.10;;;20.30;51.80;;;;;;5062204;28;20457;-62
2023/05/30 09:41:06;;;;;;;12.37;3.00;;;20.30;51.80;;;;;;5063794;28;20462;-62
2023/05/30 09:43:43;;;;;;;10.13;3.30;;;20.40;51.50;;;;;;5062359;28;20971;-61
2023/05/30 09:46:20;;;;;;;9.70;2.80;;;20.40;51.40;;;;;;5067907;28;20797;-61
2023/05/30 09:48:52;;;;;;;12.13;2.97;;;20.40;51.40;;;;;;5067414;28;20755;-62
2023/05/30 09:51:32;;;;;;;9.20;2.97;;;20.40;51.00;;;;;;5062834;28;20960;-61
2023/05/30 09:54:09;;;;;;;8.00;2.57;;;20.50;50.90;;;;;;5065498;28;20454;-61
2023/05/30 09:56:48;;;;;;;7.40;2.40;;;20.50;51.10;;;;;;5063117;28;20451;-61
2023/05/30 09:59:23;;;;;;;8.77;2.77;;;20.50;51.20;;;;;;5064234;28;20457;-62
2023/05/30 10:01:57;;;;;;;13.50;3.30;;;20.60;51.20;;;;;;5063749;28;20485;-61
2023/05/30 10:04:31;;;;;;;7.43;2.47;;;20.70;51.10;;;;;;5063841;28;20553;-62
2023/05/30 10:07:15;;;;;;;11.50;3.57;;;20.80;50.90;;;;;;5063620;28;20449;-62
2023/05/30 10:09:48;;;;;;;7.60;3.07;;;20.80;50.60;;;;;;5062926;28;20955;-61
2023/05/30 10:12:23;;;;;;;7.30;2.20;;;20.80;50.50;;;;;;5062952;28;20972;-61
2023/05/30 10:14:54;;;;;;;9.80;2.80;;;20.80;50.10;;;;;;5066869;28;21012;-62
2023/05/30 10:17:28;;;;;;;8.70;3.37;;;20.80;49.90;;;;;;5066516;28;20465;-62
2023/05/30 10:20:06;;;;;;;11.57;2.80;;;20.80;49.80;;;;;;5061442;28;20466;-61
2023/05/30 10:22:57;;;;;;;9.93;3.30;;;20.90;50.00;;;;;;5081285;28;20461;-62
2023/05/30 10:25:35;;;;;;;10.03;3.50;;;20.90;50.00;;;;;;5065346;28;20997;-62
2023/05/30 10:28:11;;;;;;;13.03;3.33;;;20.90;49.90;;;;;;5066112;28;20457;-61
2023/05/30 10:30:52;;;;;;;10.17;2.90;;;21.00;49.90;;;;;;5066117;28;20479;-62
2023/05/30 10:33:38;;;;;;;8.63;2.77;;;21.00;49.80;;;;;;5063495;28;20453;-62
2023/05/30 10:36:28;;;;;;;10.57;3.37;;;21.00;50.00;;;;;;5064549;28;20975;-62
2023/05/30 10:39:11;;;;;;;7.90;2.93;;;21.10;49.80;;;;;;5060833;28;20450;-61
2023/05/30 10:41:52;;;;;;;9.83;3.20;;;21.10;49.80;;;;;;5060170;28;21230;-62
2023/05/30 10:44:45;;;;;;;11.10;2.83;;;21.10;49.60;;;;;;5069025;28;20473;-62
2023/05/30 10:47:52;;;;;;;8.80;3.10;;;21.10;49.60;;;;;;5066030;28;20543;-62
2023/05/30 10:50:34;;;;;;;8.13;2.80;;;21.20;49.50;;;;;;5062457;28;20469;-62
2023/05/30 10:53:14;;;;;;;9.47;2.70;;;21.20;49.70;;;;;;5066393;28;20851;-62
2023/05/30 10:56:03;;;;;;;7.47;2.80;;;21.30;49.60;;;;;;5068217;28;20460;-62
2023/05/30 10:58:47;;;;;;;6.43;2.90;;;21.30;49.50;;;;;;5065535;28;20461;-62
2023/05/30 11:01:26;;;;;;;9.83;3.67;;;21.30;49.80;;;;;;5064111;28;20588;-62
2023/05/30 11:04:04;;;;;;;7.53;2.70;;;21.40;49.90;;;;;;5085140;28;20981;-62
2023/05/30 11:06:47;;;;;;;21.77;3.30;;;21.40;50.00;;;;;;5064768;28;20460;-62
2023/05/30 11:09:21;;;;;;;9.00;2.80;;;21.50;50.00;;;;;;5064931;28;20843;-62
2023/05/30 11:12:00;;;;;;;13.13;3.73;;;21.60;50.00;;;;;;5063396;28;20469;-61
2023/05/30 11:14:36;;;;;;;9.20;3.00;;;21.60;50.00;;;;;;5068377;28;20522;-62
2023/05/30 11:17:08;;;;;;;7.03;2.60;;;21.60;49.90;;;;;;5066479;28;20445;-62
2023/05/30 11:19:42;;;;;;;10.50;3.20;;;21.70;49.90;;;;;;5069102;28;21165;-62
2023/05/30 11:22:22;;;;;;;8.47;2.63;;;21.70;50.00;;;;;;5063572;28;20473;-62
2023/05/30 11:25:19;;;;;;;8.00;2.90;;;21.80;49.80;;;;;;5063499;28;20489;-62
2023/05/30 11:28:33;;;;;;;9.90;2.77;;;21.80;49.40;;;;;;5064007;28;20445;-62
2023/05/30 11:31:16;;;;;;;8.60;2.83;;;21.90;49.20;;;;;;5022648;28;20476;-62
2023/05/30 11:33:51;;;;;;;9.87;3.07;;;22.00;49.10;;;;;;5063284;28;20453;-62
2023/05/30 11:36:25;;;;;;;7.87;2.70;;;22.00;48.90;;;;;;5061243;28;20478;-62
2023/05/30 11:39:00;;;;;;;6.07;1.93;;;22.00;48.40;;;;;;5064701;28;20540;-62
2023/05/30 11:41:32;;;;;;;10.90;3.23;;;22.00;48.10;;;;;;5063080;28;20475;-62
2023/05/30 11:44:05;;;;;;;8.37;2.50;;;22.10;47.80;;;;;;5065157;28;20828;-62
2023/05/30 11:46:45;;;;;;;7.63;2.53;;;22.10;47.40;;;;;;5064596;28;21018;-62
2023/05/30 11:49:17;;;;;;;11.20;2.50;;;22.10;47.20;;;;;;5066832;28;21009;-63
2023/05/30 11:51:55;;;;;;;8.80;2.60;;;22.10;46.90;;;;;;5069006;28;20465;-63
2023/05/30 11:54:28;;;;;;;8.10;3.00;;;22.20;46.50;;;;;;5066388;28;20507;-62
2023/05/30 11:56:59;;;;;;;9.87;2.97;;;22.20;46.40;;;;;;5062613;28;20801;-62
2023/05/30 11:59:42;;;;;;;8.30;2.83;;;22.20;46.20;;;;;;5067932;28;20906;-62
2023/05/30 12:02:23;;;;;;;8.67;2.73;;;22.20;45.70;;;;;;5064648;28;20585;-62
2023/05/30 12:05:01;;;;;;;8.27;2.77;;;22.20;45.20;;;;;;5065452;28;20813;-62
2023/05/30 12:07:40;;;;;;;9.10;2.47;;;22.20;45.10;;;;;;5068764;28;21260;-62
2023/05/30 12:10:12;;;;;;;6.90;2.27;;;22.20;45.00;;;;;;5061432;28;20476;-62
2023/05/30 12:12:45;;;;;;;7.37;2.53;;;22.20;44.70;;;;;;5064677;28;20461;-62
2023/05/30 12:15:26;;;;;;;7.30;2.73;;;22.20;44.70;;;;;;5066561;28;20445;-62
2023/05/30 12:18:00;;;;;;;8.03;2.60;;;22.30;44.60;;;;;;5066328;28;20456;-62
2023/05/30 12:20:34;;;;;;;6.47;2.13;;;22.30;44.00;;;;;;5068609;28;20551;-62
2023/05/30 12:23:09;;;;;;;4.93;1.47;;;22.40;43.70;;;;;;5067458;28;20450;-62
2023/05/30 12:25:41;;;;;;;7.67;2.67;;;22.50;43.60;;;;;;5063454;28;21074;-62
2023/05/30 12:28:16;;;;;;;6.80;2.53;;;22.50;43.30;;;;;;5064711;28;20851;-62
2023/05/30 12:30:52;;;;;;;8.37;2.77;;;22.60;43.30;;;;;;5065461;28;20468;-62
2023/05/30 12:33:33;;;;;;;10.93;2.77;;;22.60;43.50;;;;;;5065784;28;20457;-62
2023/05/30 12:36:06;;;;;;;7.90;2.47;;;22.70;43.20;;;;;;5065272;28;20476;-62
2023/05/30 12:38:50;;;;;;;7.60;2.30;;;22.70;43.40;;;;;;5066266;28;20452;-62
2023/05/30 12:41:29;;;;;;;7.90;2.53;;;22.80;43.40;;;;;;5065414;28;20456;-62
2023/05/30 12:44:03;;;;;;;9.37;2.73;;;22.90;43.20;;;;;;5065103;28;21169;-62
2023/05/30 12:46:45;;;;;;;7.73;2.17;;;22.90;43.20;;;;;;5065245;28;21001;-62
2023/05/30 12:49:25;;;;;;;10.33;2.30;;;23.00;43.10;;;;;;5066052;28;20461;-63
2023/05/30 12:52:00;;;;;;;6.73;2.30;;;23.00;42.80;;;;;;5066132;28;20461;-63
2023/05/30 12:54:37;;;;;;;8.13;2.90;;;23.00;42.40;;;;;;5066774;28;20458;-62
2023/05/30 12:57:24;;;;;;;8.37;2.30;;;23.00;42.20;;;;;;5061299;28;20480;-62
2023/05/30 13:02:56;;;;;;;12.20;2.17;;;23.00;42.10;;;;;;5065235;28;20538;-63
2023/05/30 13:05:29;;;;;;;8.13;2.40;;;23.00;42.20;;;;;;5064792;28;20473;-62
2023/05/30 13:08:08;;;;;;;10.73;2.63;;;23.00;41.80;;;;;;5063928;28;20462;-63
2023/05/30 13:10:43;;;;;;;11.73;2.37;;;23.10;41.70;;;;;;5064991;28;20470;-62
2023/05/30 13:13:16;;;;;;;8.20;2.80;;;23.10;41.20;;;;;;5061153;28;20469;-63
2023/05/30 13:15:56;;;;;;;6.60;2.30;;;23.20;41.10;;;;;;5060327;28;20468;-62
2023/05/30 13:18:33;;;;;;;8.40;2.30;;;23.20;41.40;;;;;;5065559;28;20522;-62
2023/05/30 13:21:06;;;;;;;6.63;2.30;;;23.20;41.30;;;;;;5067556;28;20495;-63
2023/05/30 13:23:38;;;;;;;8.43;2.40;;;23.20;41.10;;;;;;5061024;28;20454;-62
2023/05/30 13:26:12;;;;;;;8.77;2.70;;;23.30;40.90;;;;;;5064304;28;20547;-62
2023/05/30 13:28:44;;;;;;;5.50;1.83;;;23.30;40.90;;;;;;5063431;28;20473;-62
2023/05/30 13:31:22;;;;;;;7.13;2.37;;;23.40;40.50;;;;;;5063943;28;21066;-62
2023/05/30 13:33:57;;;;;;;8.90;2.77;;;23.30;40.30;;;;;;5066037;28;20475;-62
2023/05/30 13:36:27;;;;;;;5.90;2.40;;;23.30;40.10;;;;;;5063945;28;20874;-62
2023/05/30 13:39:11;;;;;;;6.40;2.17;;;23.30;39.90;;;;;;5063386;28;21288;-63
2023/05/30 13:41:45;;;;;;;9.20;2.83;;;23.30;39.90;;;;;;5061180;28;20995;-62
2023/05/30 13:44:19;;;;;;;6.10;2.47;;;23.40;39.60;;;;;;5062866;28;20460;-63
2023/05/30 13:46:54;;;;;;;6.43;2.43;;;23.40;39.10;;;;;;5062322;28;20555;-62